Time;durP1;ratioP1;P1;durP2;ratioP2;P2;SDS_P1;SDS_P2;PMS_P1;PMS_P2;Temp;Humidity;BMP_temperature;BMP_pressure;BME280_temperature;BME280_humidity;BME280_pressure;Samples;Min_cycle;Max_cycle;Signal;HPM_P1;HPM_P2
2024/02/12 00:00:43;;;;;;;28.30;20.70;;;;;;;9.24;100.00;98501.58;105678;1262;100445;-79
2024/02/12 00:03:41;;;;;;;30.00;20.40;;;;;;;9.24;100.00;98498.58;105635;1262;98231;-78
2024/02/12 00:06:27;;;;;;;33.60;22.00;;;;;;;9.25;100.00;98500.20;105628;1264;96269;-79
2024/02/12 00:09:13;;;;;;;30.70;20.60;;;;;;;9.25;100.00;98499.67;105685;1262;97792;-79
2024/02/12 00:11:59;;;;;;;29.30;19.10;;;;;;;9.25;100.00;98502.02;105556;1262;102672;-79
2024/02/12 00:14:45;;;;;;;26.40;19.60;;;;;;;9.25;100.00;98505.23;105560;1262;99852;-78
2024/02/12 00:17:31;;;;;;;29.10;20.30;;;;;;;9.25;100.00;98502.30;105687;1262;97926;-79
2024/02/12 00:20:16;;;;;;;29.20;19.00;;;;;;;9.25;100.00;98504.48;105551;1267;97981;-79
2024/02/12 00:23:02;;;;;;;31.20;19.60;;;;;;;9.26;100.00;98504.18;105811;1262;98683;-79
2024/02/12 00:25:48;;;;;;;27.40;19.90;;;;;;;9.25;100.00;98506.36;105699;1262;102167;-79
2024/02/12 00:28:34;;;;;;;29.00;20.70;;;;;;;9.25;100.00;98504.65;105590;1262;100361;-79
2024/02/12 00:31:21;;;;;;;30.00;20.40;;;;;;;9.25;100.00;98504.11;105627;1267;97981;-78
2024/02/12 00:34:07;;;;;;;25.80;19.30;;;;;;;9.25;100.00;98508.80;105332;1270;97948;-80
2024/02/12 00:36:52;;;;;;;27.40;19.20;;;;;;;9.23;100.00;98509.20;105534;1264;97969;-79
2024/02/12 00:39:38;;;;;;;26.50;18.60;;;;;;;9.23;100.00;98508.50;105320;1262;102702;-80
2024/02/12 00:42:24;;;;;;;26.90;19.20;;;;;;;9.23;100.00;98507.09;105154;1266;100457;-80
2024/02/12 00:45:11;;;;;;;29.30;18.70;;;;;;;9.22;100.00;98505.84;105360;1264;98841;-80
2024/02/12 00:47:56;;;;;;;25.60;18.30;;;;;;;9.21;100.00;98508.33;105471;1265;99034;-79
2024/02/12 00:50:42;;;;;;;27.10;18.30;;;;;;;9.21;100.00;98503.73;105520;1262;98660;-78
2024/02/12 00:53:28;;;;;;;27.30;18.40;;;;;;;9.21;100.00;98503.84;105529;1266;101369;-78
2024/02/12 00:56:15;;;;;;;31.00;19.80;;;;;;;9.20;100.00;98504.97;105553;1262;100110;-79
2024/02/12 00:59:01;;;;;;;26.30;19.20;;;;;;;9.19;100.00;98501.66;105208;1264;98010;-79
2024/02/12 01:01:46;;;;;;;28.50;19.30;;;;;;;9.18;100.00;98503.92;105269;1267;98794;-78
2024/02/12 01:04:32;;;;;;;28.20;19.20;;;;;;;9.16;100.00;98505.11;105393;1263;97978;-77
2024/02/12 01:07:19;;;;;;;25.70;18.40;;;;;;;9.16;100.00;98502.70;105386;1268;101435;-78
2024/02/12 01:10:05;;;;;;;27.90;19.60;;;;;;;9.17;100.00;98506.04;106902;1264;100547;-77
2024/02/12 01:12:51;;;;;;;30.50;18.20;;;;;;;9.17;100.00;98507.27;105415;1262;98915;-78
2024/02/12 01:15:37;;;;;;;26.70;17.30;;;;;;;9.17;100.00;98503.95;105270;1262;97888;-79
2024/02/12 01:18:23;;;;;;;28.20;19.40;;;;;;;9.16;100.00;98504.08;105343;1262;98028;-79
2024/02/12 01:21:09;;;;;;;24.80;18.60;;;;;;;9.15;100.00;98503.69;105262;1267;101414;-77
2024/02/12 01:23:54;;;;;;;27.20;18.80;;;;;;;9.14;100.00;98499.39;105309;1262;99725;-78
2024/02/12 01:26:44;;;;;;;28.50;19.10;;;;;;;9.14;100.00;98500.83;105267;1262;97991;-79
2024/02/12 01:29:29;;;;;;;24.10;19.00;;;;;;;9.14;100.00;98501.37;105699;1262;98083;-79
2024/02/12 01:32:15;;;;;;;26.10;18.30;;;;;;;9.13;100.00;98501.66;105689;1262;97467;-80
2024/02/12 01:35:00;;;;;;;26.00;17.80;;;;;;;9.14;100.00;98504.90;106129;1262;101356;-80
2024/02/12 01:37:46;;;;;;;29.10;19.30;;;;;;;9.14;100.00;98506.88;105738;1264;99135;-78
2024/02/12 01:40:32;;;;;;;28.20;19.70;;;;;;;9.14;100.00;98508.36;105474;1267;99173;-78
2024/02/12 01:43:31;;;;;;;29.40;20.00;;;;;;;9.12;100.00;98511.37;105250;1262;98064;-79
2024/02/12 01:46:16;;;;;;;27.00;19.80;;;;;;;9.12;100.00;98508.20;105364;1262;98403;-79
2024/02/12 01:49:02;;;;;;;26.20;18.60;;;;;;;9.11;100.00;98508.39;105310;1263;103237;-78
2024/02/12 01:51:49;;;;;;;26.60;18.80;;;;;;;9.10;100.00;98511.16;105437;1267;100390;-78
2024/02/12 01:54:35;;;;;;;24.70;18.40;;;;;;;9.09;100.00;98510.39;105344;1262;98010;-79
2024/02/12 01:57:23;;;;;;;25.90;19.10;;;;;;;9.08;100.00;98508.77;105814;1262;97962;-79
2024/02/12 02:00:11;;;;;;;30.40;20.70;;;;;;;9.09;100.00;98509.41;105691;1262;98588;-79
2024/02/12 02:02:59;;;;;;;28.10;18.70;;;;;;;9.09;100.00;98512.58;108031;1262;102011;-80
2024/02/12 02:05:45;;;;;;;27.80;19.40;;;;;;;9.10;100.00;98511.63;105620;1262;99056;-79
2024/02/12 02:08:34;;;;;;;24.60;18.60;;;;;;;9.11;100.00;98508.44;105718;1262;98742;-79
2024/02/12 02:11:20;;;;;;;26.60;20.40;;;;;;;9.11;100.00;98510.89;105606;1266;98091;-80
2024/02/12 02:14:06;;;;;;;28.80;20.40;;;;;;;9.11;100.00;98512.09;105671;1267;97967;-79
2024/02/12 02:16:52;;;;;;;27.20;21.70;;;;;;;9.12;100.00;98509.54;105678;1265;102104;-80
2024/02/12 02:19:38;;;;;;;30.90;21.90;;;;;;;9.12;100.00;98510.52;105576;1263;99175;-78
2024/02/12 02:22:23;;;;;;;28.40;20.10;;;;;;;9.13;100.00;98509.56;105443;1262;97994;-78
2024/02/12 02:25:10;;;;;;;29.40;19.50;;;;;;;9.12;100.00;98510.67;105375;1262;98092;-80
2024/02/12 02:27:57;;;;;;;25.70;18.50;;;;;;;9.12;100.00;98510.09;105151;1262;98049;-77
2024/02/12 02:30:43;;;;;;;25.10;18.20;;;;;;;9.13;100.00;98514.53;105117;1266;101422;-78
2024/02/12 02:33:29;;;;;;;27.10;19.00;;;;;;;9.12;100.00;98515.16;105345;1266;99066;-80
2024/02/12 02:36:15;;;;;;;30.80;20.70;;;;;;;9.12;100.00;98517.55;105335;1262;98565;-79
2024/02/12 02:39:03;;;;;;;26.00;18.90;;;;;;;9.11;100.00;98520.46;105237;1262;98070;-79
2024/02/12 02:41:51;;;;;;;31.70;19.10;;;;;;;9.11;100.00;98518.55;105409;1266;98540;-77
2024/02/12 02:44:39;;;;;;;31.40;19.90;;;;;;;9.11;100.00;98517.85;105989;1262;101326;-78
2024/02/12 02:47:24;;;;;;;27.50;19.10;;;;;;;9.11;100.00;98517.31;105378;1262;99088;-79
2024/02/12 02:50:10;;;;;;;27.30;18.80;;;;;;;9.10;100.00;98514.90;105346;1266;98058;-77
2024/02/12 02:52:56;;;;;;;26.20;18.90;;;;;;;9.11;100.00;98513.63;105336;1267;98008;-78
2024/02/12 02:55:43;;;;;;;26.10;19.90;;;;;;;9.11;100.00;98514.27;105333;1262;98579;-78
2024/02/12 02:58:28;;;;;;;25.40;19.40;;;;;;;9.11;100.00;98512.67;105390;1262;102637;-78
2024/02/12 03:01:13;;;;;;;27.50;20.30;;;;;;;9.11;100.00;98518.30;105404;1262;100222;-78
2024/02/12 03:03:59;;;;;;;25.70;19.80;;;;;;;9.11;100.00;98518.75;105474;1262;97981;-78
2024/02/12 03:06:45;;;;;;;26.00;19.80;;;;;;;9.12;100.00;98519.64;105420;1267;98848;-79
2024/02/12 03:09:31;;;;;;;30.50;20.90;;;;;;;9.11;100.00;98521.05;105256;1262;98169;-79
2024/02/12 03:12:16;;;;;;;29.10;20.70;;;;;;;9.10;100.00;98521.30;105385;1262;101461;-79
2024/02/12 03:15:02;;;;;;;29.40;22.90;;;;;;;9.10;100.00;98524.06;105353;1262;100166;-77
2024/02/12 03:17:48;;;;;;;31.70;21.30;;;;;;;9.10;100.00;98529.69;105151;1267;98514;-77
2024/02/12 03:20:37;;;;;;;26.20;20.00;;;;;;;9.10;100.00;98531.87;105922;1266;97993;-78
2024/02/12 03:23:22;;;;;;;28.40;20.90;;;;;;;9.09;100.00;98531.99;105376;1267;98768;-78
2024/02/12 03:26:08;;;;;;;28.50;19.90;;;;;;;9.08;100.00;98535.18;105686;1263;101489;-79
2024/02/12 03:28:54;;;;;;;25.90;19.60;;;;;;;9.07;100.00;98535.36;105646;1264;100541;-80
2024/02/12 03:31:40;;;;;;;29.30;20.00;;;;;;;9.06;100.00;98537.10;105675;1262;98725;-79
2024/02/12 03:34:29;;;;;;;31.30;21.20;;;;;;;9.04;100.00;98541.56;105615;1262;98076;-80
2024/02/12 03:37:18;;;;;;;28.70;20.20;;;;;;;9.03;100.00;98542.80;105894;1262;98396;-80
2024/02/12 03:40:09;;;;;;;28.30;21.30;;;;;;;9.02;100.00;98545.66;105693;1262;102676;-78
2024/02/12 03:42:55;;;;;;;26.00;19.50;;;;;;;9.03;100.00;98547.91;105635;1262;99201;-80
2024/02/12 03:45:44;;;;;;;27.20;19.20;;;;;;;9.03;100.00;98552.19;105785;1262;98994;-79
2024/02/12 04:00:50;;;;;;;27.40;20.40;;;;;;;9.06;100.00;98558.30;105666;1262;99006;-79
2024/02/12 04:03:37;;;;;;;28.30;20.00;;;;;;;9.06;100.00;98559.86;105846;1262;98006;-80
2024/02/12 04:06:24;;;;;;;27.30;19.40;;;;;;;9.06;100.00;98558.54;105973;1266;97878;-79
2024/02/12 04:09:10;;;;;;;32.10;20.20;;;;;;;9.06;100.00;98561.41;106031;1262;102677;-79
2024/02/12 04:11:55;;;;;;;31.50;20.90;;;;;;;9.06;100.00;98566.11;105357;1262;99133;-79
2024/02/12 04:14:42;;;;;;;29.20;20.80;;;;;;;9.06;100.00;98566.48;106049;1262;98300;-80
2024/02/12 04:17:28;;;;;;;30.90;21.20;;;;;;;9.05;100.00;98570.80;105758;1267;97901;-81
2024/02/12 04:20:15;;;;;;;30.40;21.10;;;;;;;9.06;100.00;98569.15;106102;1262;97949;-78
2024/02/12 04:23:01;;;;;;;29.40;21.00;;;;;;;9.07;100.00;98568.52;105243;1262;101436;-78
2024/02/12 04:25:47;;;;;;;30.00;20.50;;;;;;;9.07;100.00;98567.20;105375;1266;99990;-78
2024/02/12 04:28:33;;;;;;;31.70;20.90;;;;;;;9.06;100.00;98565.95;105362;1268;99052;-79
2024/02/12 04:31:20;;;;;;;29.00;19.90;;;;;;;9.05;100.00;98570.27;105367;1262;97899;-78
2024/02/12 04:34:07;;;;;;;27.60;20.30;;;;;;;9.06;100.00;98569.96;105351;1268;98435;-78
2024/02/12 04:36:55;;;;;;;25.90;19.00;;;;;;;9.06;100.00;98568.00;106093;1266;102615;-80
2024/02/12 04:39:40;;;;;;;27.70;19.20;;;;;;;9.06;100.00;98563.88;105405;1267;99355;-78
2024/02/12 04:42:27;;;;;;;24.20;19.00;;;;;;;9.06;100.00;98564.67;105308;1267;97998;-78
2024/02/12 04:45:12;;;;;;;27.30;17.40;;;;;;;9.05;100.00;98564.15;105401;1262;98067;-78
2024/02/12 04:47:58;;;;;;;26.00;18.60;;;;;;;9.05;100.00;98567.90;105387;1262;98509;-78
2024/02/12 04:50:45;;;;;;;26.60;19.20;;;;;;;9.04;100.00;98565.94;105396;1266;101406;-79
2024/02/12 04:53:30;;;;;;;23.70;17.70;;;;;;;9.03;100.00;98567.05;105419;1262;99214;-79
2024/02/12 04:56:16;;;;;;;24.70;18.30;;;;;;;9.02;100.00;98572.73;105364;1267;98496;-78
2024/02/12 04:59:03;;;;;;;23.50;18.40;;;;;;;9.02;100.00;98574.75;105146;1267;98071;-77
2024/02/12 05:01:48;;;;;;;26.00;18.80;;;;;;;9.02;100.00;98580.58;105378;1262;97991;-79
2024/02/12 05:04:34;;;;;;;22.80;17.10;;;;;;;9.02;100.00;98578.48;105555;1262;101333;-78
2024/02/12 05:07:20;;;;;;;22.20;17.20;;;;;;;9.01;100.00;98581.09;106465;1266;99232;-78
2024/02/12 05:10:06;;;;;;;22.20;16.20;;;;;;;9.01;100.00;98586.84;105618;1264;97971;-78
2024/02/12 05:12:52;;;;;;;19.20;15.40;;;;;;;9.00;100.00;98588.41;105297;1267;98858;-79
2024/02/12 05:15:37;;;;;;;19.00;15.20;;;;;;;8.98;100.00;98588.81;105464;1267;98124;-78
2024/02/12 05:24:31;;;;;;;14.60;11.30;;;;;;;8.93;100.00;98597.45;105523;1262;97998;-79
2024/02/12 05:27:17;;;;;;;17.40;12.70;;;;;;;8.91;100.00;98601.27;105365;1262;97956;-78
2024/02/12 05:30:03;;;;;;;15.00;11.60;;;;;;;8.91;100.00;98604.19;105256;1262;98442;-77
2024/02/12 05:32:49;;;;;;;14.20;10.60;;;;;;;8.91;100.00;98604.88;105880;1265;102566;-78
2024/02/12 05:35:35;;;;;;;14.70;10.70;;;;;;;8.91;100.00;98608.63;105287;1262;100325;-78
2024/02/12 05:38:22;;;;;;;16.60;14.20;;;;;;;8.89;100.00;98610.44;105261;1262;97971;-79
2024/02/12 05:41:10;;;;;;;19.40;16.60;;;;;;;8.88;100.00;98612.39;105301;1262;97987;-78
2024/02/12 05:43:56;;;;;;;14.80;13.30;;;;;;;8.87;100.00;98616.15;105382;1262;97861;-79
2024/02/12 05:46:42;;;;;;;14.60;12.80;;;;;;;8.85;100.00;98621.46;105329;1267;102631;-79
2024/02/12 05:49:29;;;;;;;13.30;10.90;;;;;;;8.83;100.00;98619.72;105364;1262;99131;-78
2024/02/12 05:52:15;;;;;;;18.30;16.30;;;;;;;8.83;100.00;98622.42;105305;1262;99456;-78
2024/02/12 05:55:00;;;;;;;26.50;22.40;;;;;;;8.81;100.00;98626.70;105339;1266;98430;-78
2024/02/12 05:57:46;;;;;;;28.50;24.30;;;;;;;8.81;100.00;98628.04;105431;1266;99436;-79
2024/02/12 06:00:32;;;;;;;23.00;17.20;;;;;;;8.80;100.00;98630.64;105669;1267;102108;-78
2024/02/12 06:03:18;;;;;;;12.60;10.80;;;;;;;8.80;100.00;98636.40;105583;1262;99211;-78
2024/02/12 06:06:04;;;;;;;12.40;10.50;;;;;;;8.78;100.00;98637.31;105572;1265;98067;-78
2024/02/12 06:08:49;;;;;;;12.80;10.00;;;;;;;8.78;100.00;98638.92;105405;1267;97987;-80
2024/02/12 06:11:35;;;;;;;10.60;9.00;;;;;;;8.78;100.00;98641.05;105169;1265;98073;-78
2024/02/12 06:14:21;;;;;;;9.70;8.70;;;;;;;8.79;100.00;98644.05;105276;1268;102696;-77
2024/02/12 06:17:08;;;;;;;12.00;9.00;;;;;;;8.77;100.00;98645.55;105394;1267;99331;-79
2024/02/12 06:19:53;;;;;;;10.20;8.70;;;;;;;8.75;100.00;98645.23;105383;1262;99015;-78
2024/02/12 06:22:41;;;;;;;8.80;7.90;;;;;;;8.74;100.00;98649.47;105200;1267;98081;-78
2024/02/12 06:25:26;;;;;;;9.10;8.10;;;;;;;8.74;100.00;98651.48;105238;1262;98546;-79
2024/02/12 06:28:12;;;;;;;11.80;8.40;;;;;;;8.74;100.00;98656.46;105234;1262;102088;-77
2024/02/12 06:30:57;;;;;;;10.60;8.90;;;;;;;8.74;100.00;98656.18;105145;1262;99998;-77
2024/02/12 06:33:43;;;;;;;11.70;8.60;;;;;;;8.73;100.00;98656.96;105409;1266;98011;-80
2024/02/12 06:36:29;;;;;;;8.60;7.70;;;;;;;8.74;100.00;98658.59;105325;1267;99209;-78
2024/02/12 06:39:16;;;;;;;9.40;8.40;;;;;;;8.74;100.00;98658.10;105386;1267;98524;-78
2024/02/12 06:42:01;;;;;;;11.20;8.10;;;;;;;8.73;100.00;98660.16;105337;1263;102735;-78
2024/02/12 06:44:47;;;;;;;9.20;8.10;;;;;;;8.72;100.00;98661.25;105363;1263;100441;-79
2024/02/12 06:47:32;;;;;;;11.10;8.70;;;;;;;8.71;100.00;98665.61;105388;1277;98273;-78
2024/02/12 06:50:18;;;;;;;9.20;8.20;;;;;;;8.72;100.00;98665.55;105363;1267;97965;-78
2024/02/12 06:53:03;;;;;;;11.30;8.30;;;;;;;8.72;100.00;98668.76;105595;1264;97849;-80
2024/02/12 06:55:49;;;;;;;10.00;8.30;;;;;;;8.72;100.00;98668.59;105594;1262;101434;-79
2024/02/12 06:58:35;;;;;;;10.70;9.10;;;;;;;8.72;100.00;98668.23;105336;1262;100523;-78
2024/02/12 07:01:21;;;;;;;8.60;7.70;;;;;;;8.72;100.00;98669.13;105389;1262;98615;-80
2024/02/12 07:04:07;;;;;;;11.00;8.30;;;;;;;8.70;100.00;98673.38;105526;1265;97889;-80
2024/02/12 07:06:54;;;;;;;9.10;7.90;;;;;;;8.69;100.00;98675.91;106073;1262;96642;-80
2024/02/12 07:09:40;;;;;;;9.80;7.90;;;;;;;8.68;100.00;98675.17;106259;1262;102478;-80
2024/02/12 07:12:26;;;;;;;10.70;8.90;;;;;;;8.68;100.00;98677.73;106172;1266;99091;-80
2024/02/12 07:15:14;;;;;;;9.00;8.10;;;;;;;8.68;100.00;98675.83;105745;1266;97963;-80
2024/02/12 07:17:59;;;;;;;10.20;8.00;;;;;;;8.68;100.00;98679.03;106323;1267;97977;-80
2024/02/12 07:20:45;;;;;;;8.50;7.20;;;;;;;8.69;100.00;98679.84;106004;1268;98096;-80
2024/02/12 07:23:30;;;;;;;8.20;7.20;;;;;;;8.69;100.00;98680.79;106208;1262;101403;-78
2024/02/12 07:26:16;;;;;;;7.80;7.10;;;;;;;8.68;100.00;98682.23;105312;1267;100370;-78
2024/02/12 07:29:02;;;;;;;9.20;7.10;;;;;;;8.69;100.00;98682.34;105427;1267;98685;-78
2024/02/12 07:31:47;;;;;;;8.60;6.70;;;;;;;8.70;100.00;98685.21;105367;1262;98025;-79
2024/02/12 07:34:33;;;;;;;8.70;6.60;;;;;;;8.70;100.00;98685.73;105317;1268;99814;-78
2024/02/12 07:37:18;;;;;;;7.90;6.70;;;;;;;8.70;100.00;98686.98;105208;1262;101528;-78
2024/02/12 07:40:10;;;;;;;8.20;7.30;;;;;;;8.71;100.00;98689.19;105346;1266;100336;-78
2024/02/12 07:42:56;;;;;;;8.30;6.70;;;;;;;8.71;100.00;98690.20;105377;1267;98335;-78
2024/02/12 07:45:43;;;;;;;9.00;7.00;;;;;;;8.71;100.00;98693.89;105363;1262;97984;-80
2024/02/12 07:50:57;;;;;;;8.90;6.70;;;;;;;8.72;100.00;98698.08;102374;1296;636803;-78
2024/02/12 07:53:44;;;;;;;9.30;8.30;;;;;;;8.70;100.00;98700.15;104738;1270;96775;-77
2024/02/12 07:56:29;;;;;;;9.70;7.90;;;;;;;8.71;100.00;98702.73;105106;1267;95847;-78
2024/02/12 07:59:15;;;;;;;8.90;7.40;;;;;;;8.73;100.00;98708.54;105029;1273;98777;-78
2024/02/12 08:02:02;;;;;;;8.10;7.20;;;;;;;8.75;100.00;98714.48;104928;1267;99848;-79
2024/02/12 08:04:48;;;;;;;7.90;6.80;;;;;;;8.77;100.00;98713.67;105194;1268;172597;-78
2024/02/12 08:07:34;;;;;;;8.00;7.20;;;;;;;8.79;100.00;98712.70;106096;1265;95893;-86
2024/02/12 08:10:20;;;;;;;10.80;6.90;;;;;;;8.80;100.00;98714.30;106200;1262;95926;-85
2024/02/12 08:13:06;;;;;;;11.30;7.20;;;;;;;8.82;100.00;98720.40;106034;1261;97408;-86
2024/02/12 08:15:52;;;;;;;8.90;6.80;;;;;;;8.86;100.00;98723.98;106106;1261;100113;-84
2024/02/12 08:18:38;;;;;;;7.40;6.40;;;;;;;8.89;100.00;98727.02;105970;1263;99001;-83
2024/02/12 08:21:24;;;;;;;8.10;6.80;;;;;;;8.91;100.00;98731.07;105820;1265;95829;-84
2024/02/12 08:24:10;;;;;;;8.90;6.70;;;;;;;8.90;100.00;98735.02;105674;1266;95890;-83
2024/02/12 08:26:55;;;;;;;7.40;6.60;;;;;;;8.91;100.00;98734.61;105843;1266;98631;-84
2024/02/12 08:29:42;;;;;;;7.60;6.40;;;;;;;8.91;100.00;98737.69;105677;1262;99095;-83
2024/02/12 08:32:28;;;;;;;7.00;6.30;;;;;;;8.92;100.00;98741.16;106595;1258;97722;-86
2024/02/12 08:35:14;;;;;;;7.90;6.40;;;;;;;8.95;100.00;98741.35;106777;1253;96008;-86
2024/02/12 08:38:00;;;;;;;9.20;6.60;;;;;;;8.98;100.00;98744.31;106839;1257;96752;-88
2024/02/12 08:40:50;;;;;;;6.90;6.10;;;;;;;8.99;100.00;98747.78;106708;1254;98692;-87
2024/02/12 08:43:37;;;;;;;7.70;6.70;;;;;;;9.01;100.00;98749.37;106711;1256;100297;-85
2024/02/12 08:46:23;;;;;;;7.10;6.40;;;;;;;9.01;100.00;98751.13;106686;1254;99792;-78
2024/02/12 08:49:09;;;;;;;6.90;5.90;;;;;;;9.02;100.00;98756.30;105981;1254;96438;-79
2024/02/12 08:51:56;;;;;;;9.40;7.20;;;;;;;9.03;100.00;98761.19;105951;1256;96437;-78
2024/02/12 08:54:42;;;;;;;8.30;7.30;;;;;;;9.02;100.00;98762.30;105785;1257;98690;-78
2024/02/12 08:57:28;;;;;;;7.80;6.30;;;;;;;9.04;100.00;98767.04;105762;1257;100049;-79
2024/02/12 09:00:22;;;;;;;10.70;6.50;;;;;;;9.05;100.00;98768.80;105662;1263;97736;-78
2024/02/12 09:03:08;;;;;;;8.70;6.10;;;;;;;9.05;100.00;98769.70;105807;1257;95892;-79
2024/02/12 09:05:54;;;;;;;7.00;6.20;;;;;;;9.05;100.00;98769.70;106171;1260;95886;-80
2024/02/12 09:08:43;;;;;;;9.50;6.40;;;;;;;9.06;100.00;98775.90;105431;1257;98621;-77
2024/02/12 09:11:29;;;;;;;6.50;5.30;;;;;;;9.06;100.00;98777.26;105542;1263;99074;-78
2024/02/12 09:14:17;;;;;;;5.80;5.30;;;;;;;9.04;100.00;98786.06;105503;1264;98434;-77
2024/02/12 09:17:02;;;;;;;6.60;5.50;;;;;;;9.03;100.00;98790.64;105857;1263;95964;-78
2024/02/12 09:19:48;;;;;;;6.10;5.50;;;;;;;9.03;100.00;98794.42;105689;1260;95925;-78
2024/02/12 09:22:34;;;;;;;5.70;5.10;;;;;;;9.04;100.00;98798.77;105584;1264;99957;-78
2024/02/12 09:25:19;;;;;;;6.80;5.40;;;;;;;9.03;100.00;98804.73;106011;1257;100379;-80
2024/02/12 09:28:06;;;;;;;6.80;5.90;;;;;;;9.02;100.00;98807.83;106060;1257;98969;-79
2024/02/12 09:30:52;;;;;;;6.30;5.60;;;;;;;9.02;100.00;98811.84;106797;1257;94380;-79
2024/02/12 09:33:37;;;;;;;6.10;5.40;;;;;;;9.03;100.00;98809.58;106784;1260;95804;-80
2024/02/12 09:36:24;;;;;;;7.50;5.60;;;;;;;9.03;100.00;98812.30;106246;1257;98492;-85
2024/02/12 09:39:10;;;;;;;7.00;5.80;;;;;;;9.03;100.00;98816.36;106257;1257;99273;-78
2024/02/12 09:41:56;;;;;;;7.60;6.20;;;;;;;9.03;100.00;98825.39;105662;1258;98582;-77
2024/02/12 09:44:46;;;;;;;7.50;5.40;;;;;;;9.04;100.00;98827.45;105365;1257;96436;-77
2024/02/12 09:47:35;;;;;;;6.60;6.00;;;;;;;9.05;100.00;98828.02;105832;1260;95819;-85
2024/02/12 09:50:27;;;;;;;10.60;7.40;;;;;;;9.05;100.00;98826.78;106350;1257;98692;-80
2024/02/12 09:53:21;;;;;;;6.90;6.20;;;;;;;9.05;100.00;98832.13;106730;1257;99130;-80
2024/02/12 09:56:07;;;;;;;7.30;5.70;;;;;;;9.08;100.00;98832.59;106339;1257;97765;-78
2024/02/12 09:58:54;;;;;;;10.30;6.10;;;;;;;9.11;100.00;98832.42;105397;1262;95870;-79
2024/02/12 10:01:41;;;;;;;6.80;6.10;;;;;;;9.12;100.00;98832.88;105719;1257;95896;-77
2024/02/12 10:04:27;;;;;;;8.80;6.30;;;;;;;9.11;100.00;98835.38;105733;1257;100212;-85
2024/02/12 10:07:13;;;;;;;9.60;7.40;;;;;;;9.10;100.00;98833.05;106276;1258;100397;-85
2024/02/12 10:10:00;;;;;;;7.50;5.80;;;;;;;9.10;100.00;98838.23;106252;1257;99126;-85
2024/02/12 10:12:53;;;;;;;9.00;6.40;;;;;;;9.10;100.00;98838.45;106144;1258;95277;-81
2024/02/12 10:15:41;;;;;;;8.10;6.50;;;;;;;9.11;100.00;98839.41;106069;1257;95997;-81
2024/02/12 10:18:27;;;;;;;7.60;6.80;;;;;;;9.12;100.00;98836.17;106087;1258;99982;-82
2024/02/12 10:21:15;;;;;;;7.10;6.00;;;;;;;9.14;100.00;98836.44;106167;1258;99428;-83
2024/02/12 10:24:01;;;;;;;8.00;6.40;;;;;;;9.17;100.00;98834.75;106271;1257;97743;-84
2024/02/12 10:26:50;;;;;;;8.60;6.50;;;;;;;9.19;100.00;98837.82;106262;1258;95905;-85
2024/02/12 10:29:37;;;;;;;8.80;6.50;;;;;;;9.20;100.00;98840.93;106251;1261;95802;-84
2024/02/12 10:32:28;;;;;;;7.10;6.40;;;;;;;9.20;100.00;98840.77;106065;1263;98805;-85
2024/02/12 10:35:15;;;;;;;7.60;6.80;;;;;;;9.20;100.00;98839.62;106175;1257;99156;-83
2024/02/12 10:38:01;;;;;;;7.20;6.40;;;;;;;9.21;100.00;98839.77;106082;1260;97909;-85
2024/02/12 10:41:10;;;;;;;7.90;7.10;;;;;;;9.24;100.00;98844.84;105924;1264;95956;-84
2024/02/12 10:43:58;;;;;;;6.90;6.20;;;;;;;9.22;100.00;98843.73;106059;1257;95806;-83
2024/02/12 10:46:46;;;;;;;8.70;7.20;;;;;;;9.21;100.00;98845.20;106049;1257;98722;-83
2024/02/12 10:49:32;;;;;;;10.80;7.70;;;;;;;9.20;100.00;98851.69;105968;1261;99118;-84
2024/02/12 10:52:19;;;;;;;7.50;6.80;;;;;;;9.19;100.00;98848.71;106394;1263;97656;-86
2024/02/12 10:55:09;;;;;;;8.00;7.20;;;;;;;9.18;100.00;98849.36;105959;1257;95868;-77
2024/02/12 10:57:56;;;;;;;9.30;7.10;;;;;;;9.17;100.00;98853.03;105892;1257;96034;-89
2024/02/12 11:01:21;;;;;;;9.40;7.40;;;;;;;9.18;100.00;98852.62;106762;1257;98632;-92
2024/02/12 11:04:13;;;;;;;10.00;7.50;;;;;;;9.20;100.00;98858.56;106585;1260;99205;-88
2024/02/12 11:07:06;;;;;;;;;;;;;;;9.23;100.00;98864.00;106556;1257;98923;-87
2024/02/12 11:10:03;;;;;;;7.80;6.70;;;;;;;9.22;100.00;98864.63;106365;1257;95817;-84
2024/02/12 11:12:49;;;;;;;9.20;7.40;;;;;;;9.21;100.00;98863.36;106085;1257;96057;-87
2024/02/12 11:15:35;;;;;;;8.70;7.80;;;;;;;9.21;100.00;98862.02;106355;1262;98786;-86
2024/02/12 11:18:25;;;;;;;9.60;7.70;;;;;;;9.20;100.00;98863.70;106204;1257;100425;-86
2024/02/12 11:21:16;;;;;;;7.70;6.90;;;;;;;9.19;100.00;98868.27;106181;1257;97820;-88
2024/02/12 11:24:10;;;;;;;;;;;;;;;9.18;100.00;98868.08;107012;1258;95918;-89
2024/02/12 11:26:59;;;;;;;8.40;6.80;;;;;;;9.17;100.00;98867.02;106908;1257;95821;-91
2024/02/12 11:30:09;;;;;;;7.10;6.00;;;;;;;9.17;100.00;98873.88;107067;1258;99893;-89
2024/02/12 11:32:58;;;;;;;7.70;6.60;;;;;;;9.18;100.00;98874.66;106639;1261;99815;-87
2024/02/12 11:36:27;;;;;;;9.30;6.90;;;;;;;9.19;100.00;98878.41;106614;1258;97811;-92
2024/02/12 11:39:21;;;;;;;11.20;7.40;;;;;;;9.22;100.00;98878.39;106672;1261;95973;-93
2024/02/12 11:42:09;;;;;;;9.00;6.80;;;;;;;9.22;100.00;98878.02;106727;1259;95875;-90
2024/02/12 11:48:09;;;;;;;10.40;7.10;;;;;;;9.21;100.00;98877.51;106661;1263;100341;-86
2024/02/12 11:50:55;;;;;;;9.00;7.50;;;;;;;9.21;100.00;98880.58;106641;1260;99197;-80
2024/02/12 11:53:41;;;;;;;9.60;7.50;;;;;;;9.24;100.00;98881.66;106511;1264;95890;-88
2024/02/12 11:56:27;;;;;;;9.50;7.70;;;;;;;9.27;100.00;98881.77;106368;1261;95910;-87
2024/02/12 11:59:14;;;;;;;10.40;8.10;;;;;;;9.29;100.00;98880.17;106423;1264;98730;-88
2024/02/12 12:02:00;;;;;;;10.50;7.60;;;;;;;9.31;100.00;98877.35;106453;1261;99076;-88
2024/02/12 12:04:48;;;;;;;13.10;7.50;;;;;;;9.33;100.00;98880.63;106396;1266;98891;-87
2024/02/12 12:07:36;;;;;;;10.00;7.70;;;;;;;9.35;100.00;98881.33;106441;1265;96309;-87
2024/02/12 12:10:23;;;;;;;10.20;7.60;;;;;;;9.34;100.00;98882.09;106380;1260;95921;-84
2024/02/12 12:13:10;;;;;;;11.10;7.30;;;;;;;9.34;100.00;98885.92;106245;1260;99486;-87
2024/02/12 12:15:57;;;;;;;9.50;7.80;;;;;;;9.35;100.00;98882.63;105960;1260;99130;-86
2024/02/12 12:18:44;;;;;;;11.20;7.60;;;;;;;9.36;100.00;98883.70;105961;1262;97578;-85
2024/02/12 12:21:35;;;;;;;12.70;8.30;;;;;;;9.38;100.00;98886.64;105957;1264;95850;-83
2024/02/12 12:24:21;;;;;;;8.30;6.90;;;;;;;9.40;100.00;98889.58;106061;1263;95855;-83
2024/02/12 12:27:07;;;;;;;9.40;6.90;;;;;;;9.40;100.00;98889.52;106119;1260;99863;-82
2024/02/12 12:29:54;;;;;;;8.50;7.00;;;;;;;9.40;100.00;98887.92;106047;1261;100226;-81
2024/02/12 12:32:47;;;;;;;8.30;7.20;;;;;;;9.41;100.00;98887.63;106097;1261;99058;-83
2024/02/12 12:35:34;;;;;;;11.70;7.40;;;;;;;9.41;100.00;98886.52;105931;1263;96621;-84
2024/02/12 12:38:21;;;;;;;9.80;7.50;;;;;;;9.42;100.00;98889.31;106488;1262;96621;-87
2024/02/12 12:41:07;;;;;;;11.80;7.80;;;;;;;9.43;100.00;98892.50;106555;1264;101906;-87
2024/02/12 12:43:56;;;;;;;9.40;7.20;;;;;;;9.44;100.00;98895.91;106279;1262;100292;-86
2024/02/12 12:46:42;;;;;;;9.20;7.30;;;;;;;9.46;100.00;98897.36;106485;1261;98401;-89
2024/02/12 12:49:30;;;;;;;8.40;6.90;;;;;;;9.49;100.00;98900.09;106277;1260;96593;-86
2024/02/12 12:52:15;;;;;;;9.00;6.70;;;;;;;9.52;100.00;98899.19;106150;1261;96710;-87
2024/02/12 12:55:03;;;;;;;9.50;7.30;;;;;;;9.53;100.00;98903.09;106448;1262;100109;-89
2024/02/12 12:57:50;;;;;;;10.10;7.10;;;;;;;9.53;100.00;98906.84;106574;1259;99128;-89
2024/02/12 13:00:37;;;;;;;8.60;6.60;;;;;;;9.54;100.00;98907.23;106490;1259;98935;-89
2024/02/12 13:03:32;;;;;;;7.70;6.10;;;;;;;9.54;100.00;98909.42;106938;1264;95893;-89
2024/02/12 13:06:17;;;;;;;7.10;6.40;;;;;;;9.52;100.00;98914.83;104968;1259;2186261;-83
2024/02/12 13:09:07;;;;;;;10.20;6.50;;;;;;;9.51;100.00;98917.13;106648;1260;102019;-89